Etzikom, Canada
Current Conditions -  °F | °C
As of 10:20 PM on Tuesday 25 Nov 2014 (Local Time) from CYXH Reporting Station
Overcast Overcast  
Wind Chill: -9°   Ceiling: 2500
Heat Index: -4°   Visibility: 9mi
Dew Point: -5°   Wind: 8mph
Humidity: 93%   Direction: 10°N
Pressure: 30.18"   Gusts: NA
Location:  49.48°N, 111.1°W
Report Text: CYXH 260520Z AUTO 01007KT 9SM FEW014 OVC025 M04/M05 A3018 RMK SLP251
Loading
Personal Weather Stations






























Interactive Weather Map New forecast layout! Learn more

10-Day Weather Forecast

Advertisements
Track Severe Weather on mobile